tititudorancea.com
Station Historical Data
Daily Summary for August 4, 2018 Units:  Metric    English   Both
« Previous Day
Next Day »
Daily Weekly Monthly Yearly Custom
  High: Low: Average:
Temperature: -17.8 °C 5.7 °C 9.3 °C
Dew Point: -17.8 °C 4.1 °C 5.9 °C
Humidity: Humidity % 60 % 80 %
Wind Speed: 0 km/h 3.7 km/h 18.5 km/h
Wind Gust: 0 km/h - -
Wind:- - WSW
Pressure: 0 hPa 1007 hPa -
Precipitation: 0.2 mm    
Historical Graphs
 
 
Ararat weather Find more about Weather in Ararat, AU


 



 


Tabular Data for August 4, 2018
Time Temperature Dew Point Pressure Wind Wind Speed Wind Gust Humidity Rainfall Rate (Hourly)
-17.8 °C -17.8 °C 0 hPa Calm     Humidity % 0 mm
00:04 7.7 °C 5.8 °C 1007 hPa WNW 13 km/h 8.7 km/h 88 % 0 mm
00:09 7.7 °C 5.7 °C 1007.3 hPa WNW 6.4 km/h 5.8 km/h 87 % 0 mm
00:14 7.6 °C 5.6 °C 1007.3 hPa WNW 5.6 km/h 6.6 km/h 87 % 0 mm
00:19 7.5 °C 5.3 °C 1007.3 hPa WNW 3.7 km/h 1.6 km/h 86 % 0 mm
00:24 7.4 °C 5.4 °C 1007.3 hPa WNW 6.4 km/h 5.3 km/h 87 % 0 mm
00:29 7.3 °C 5.1 °C 1007.3 hPa North 9.3 km/h 4.8 km/h 86 % 0 mm
00:34 7.3 °C 5.2 °C 1007.3 hPa WNW 9.3 km/h 7.1 km/h 86 % 0 mm
00:39 7.4 °C 5.1 °C 1007.7 hPa WNW 14.8 km/h 10.6 km/h 85 % 0 mm
00:44 7.6 °C 5 °C 1007.7 hPa WNW 13 km/h 8.2 km/h 84 % 0 mm
00:49 7.6 °C 4.9 °C 1007.7 hPa WNW 11.1 km/h 8.5 km/h 83 % 0 mm
00:54 7.6 °C 4.9 °C 1007.7 hPa WNW 13 km/h 10.9 km/h 83 % 0 mm
00:59 7.6 °C 4.9 °C 1007.7 hPa WNW 7.4 km/h 6.3 km/h 83 % 0 mm
01:04 7.5 °C 4.6 °C 1007.7 hPa WNW 13 km/h 7.1 km/h 82 % 0 mm
01:09 7.5 °C 4.6 °C 1008 hPa North 14.8 km/h 10.6 km/h 82 % 0 mm
01:14 7.5 °C 4.6 °C 1008 hPa WNW 11.1 km/h 7.4 km/h 82 % 0 mm
01:19 7.4 °C 4.5 °C 1007.7 hPa WNW 9.3 km/h 6.3 km/h 82 % 0 mm
01:24 7.3 °C 4.4 °C 1008 hPa WNW 5.6 km/h 4.3 km/h 82 % 0 mm
01:29 7.2 °C 4.3 °C 1008 hPa WNW 3.7 km/h 3.2 km/h 82 % 0 mm
01:34 7 °C 4.1 °C 1008 hPa WNW 11.3 km/h 7.4 km/h 82 % 0 mm
01:39 7.2 °C 4.3 °C 1008 hPa WNW 16.7 km/h 9 km/h 82 % 0 mm
01:44 7.3 °C 4.4 °C 1008 hPa WNW 8 km/h 6.8 km/h 82 % 0 mm
01:49 7.3 °C 4.2 °C 1008 hPa WNW 8 km/h 6.1 km/h 81 % 0 mm
01:54 7.4 °C 4.5 °C 1008 hPa WNW 18.5 km/h 12.2 km/h 82 % 0 mm
01:59 7.5 °C 4.6 °C 1008 hPa NW 17.7 km/h 10 km/h 82 % 0 mm
02:04 7.9 °C 4.7 °C 1008 hPa NW 13 km/h 9.2 km/h 80 % 0 mm
02:09 7.9 °C 4.7 °C 1008 hPa NW 11.1 km/h 8 km/h 80 % 0 mm
02:14 7.8 °C 4.6 °C 1008 hPa NW 13 km/h 8.5 km/h 80 % 0 mm
02:19 7.7 °C 4.5 °C 1008 hPa NW 11.1 km/h 7.6 km/h 80 % 0 mm
02:24 7.5 °C 4.4 °C 1008 hPa NW 13 km/h 10 km/h 81 % 0 mm
02:29 7.4 °C 4.5 °C 1007.7 hPa NW 9.3 km/h 6.9 km/h 82 % 0 mm
02:34 7.3 °C 4.4 °C 1008 hPa NW 14.5 km/h 7.7 km/h 82 % 0 mm
02:39 7.4 °C 4.7 °C 1008 hPa NW 16.7 km/h 9 km/h 83 % 0 mm
02:44 7.3 °C 4.6 °C 1008 hPa NW 11.1 km/h 9.2 km/h 83 % 0 mm
02:49 7.2 °C 4.8 °C 1008 hPa NW 7.4 km/h 8.7 km/h 85 % 0 mm
02:54 7.1 °C 4.9 °C 1008 hPa North 13 km/h 7.1 km/h 86 % 0 mm
02:59 6.9 °C 4.9 °C 1008 hPa NNW 5.6 km/h 6.1 km/h 87 % 0 mm
03:04 6.7 °C 4.7 °C 1008 hPa NNW 13 km/h 6.3 km/h 87 % 0 mm
03:09 6.6 °C 4.8 °C 1008.4 hPa NNW 13 km/h 8.5 km/h 88 % 0 mm
03:14 6.6 °C 4.9 °C 1008 hPa NNW 7.4 km/h 5.1 km/h 89 % 0 mm
03:19 6.6 °C 5.1 °C 1008.4 hPa North 9.3 km/h 8.7 km/h 90 % 0 mm
03:24 6.5 °C 5 °C 1008 hPa North 7.4 km/h 6.6 km/h 90 % 0 mm
03:29 6.4 °C 4.9 °C 1008 hPa North 9.3 km/h 6.4 km/h 90 % 0 mm
03:34 6.3 °C 4.9 °C 1008 hPa NNW 9.3 km/h 6.3 km/h 91 % 0 mm
03:39 6.3 °C 4.9 °C 1008 hPa North 16.7 km/h 8.7 km/h 91 % 0 mm
03:44 6.3 °C 4.9 °C 1008 hPa North 11.3 km/h 7.7 km/h 91 % 0 mm
03:49 6.3 °C 4.9 °C 1008.4 hPa North 11.1 km/h 5.8 km/h 91 % 0 mm
03:54 6.2 °C 4.8 °C 1008.4 hPa North 5.6 km/h 4 km/h 91 % 0 mm
03:59 6.1 °C 4.9 °C 1008.4 hPa North 13 km/h 4.7 km/h 92 % 0 mm
04:04 6.1 °C 4.8 °C 1008.4 hPa North 13 km/h 7.9 km/h 92 % 0 mm
04:09 6.2 °C 4.9 °C 1008.4 hPa North 11.1 km/h 8 km/h 92 % 0 mm
04:14 6.1 °C 4.9 °C 1008.4 hPa North 9.7 km/h 7.2 km/h 92 % 0 mm
04:19 6.1 °C 4.9 °C 1008.4 hPa North 7.4 km/h 4.3 km/h 92 % 0 mm
04:24 6.1 °C 4.8 °C 1008.4 hPa North 14.8 km/h 10.3 km/h 92 % 0 mm
04:29 6.1 °C 4.8 °C 1008.4 hPa North 5.6 km/h 2.3 km/h 92 % 0 mm
04:34 5.9 °C 4.7 °C 1008.4 hPa North 11.3 km/h 4.8 km/h 92 % 0 mm
04:39 6 °C 4.9 °C 1008.4 hPa North 16.1 km/h 7.6 km/h 93 % 0 mm
04:44 6.1 °C 5.1 °C 1008.4 hPa NNW 19.3 km/h 7.4 km/h 93 % 0 mm
04:49 6.2 °C 4.9 °C 1008.4 hPa NNW 14.8 km/h 12.7 km/h 92 % 0 mm
04:54 6.2 °C 4.9 °C 1008.4 hPa NNW 20.4 km/h 12.6 km/h 92 % 0 mm
04:59 6.2 °C 4.9 °C 1008.4 hPa NNW 24.1 km/h 13.7 km/h 92 % 0 mm
05:04 6.2 °C 4.9 °C 1008.7 hPa NNW 18.5 km/h 12.7 km/h 92 % 0 mm
05:09 6.3 °C 5.2 °C 1008.7 hPa NNW 25.9 km/h 13.2 km/h 93 % 0 mm
05:14 6.4 °C 5.3 °C 1008.7 hPa NNW 25.9 km/h 14.3 km/h 93 % 0 mm
05:19 6.4 °C 5.2 °C 1008.7 hPa NNW 18.5 km/h 13.8 km/h 92 % 0 mm
05:24 6.3 °C 5.1 °C 1008.7 hPa NNW 18.5 km/h 10.3 km/h 92 % 0 mm
05:29 6.3 °C 5.1 °C 1008.7 hPa North 18.5 km/h 13 km/h 92 % 0 mm
05:34 6.2 °C 5 °C 1008.7 hPa North 24.1 km/h 13.8 km/h 92 % 0 mm
05:39 6.2 °C 5 °C 1008.7 hPa North 16.1 km/h 12.7 km/h 92 % 0 mm
05:44 6.1 °C 4.9 °C 1008.7 hPa North 16.7 km/h 12.4 km/h 92 % 0 mm
05:49 6.1 °C 4.8 °C 1008.7 hPa North 18.5 km/h 11.7 km/h 92 % 0 mm
05:54 6 °C 4.8 °C 1008.7 hPa North 11.1 km/h 11.6 km/h 92 % 0 mm
05:59 5.9 °C 4.7 °C 1009 hPa North 14.8 km/h 12.9 km/h 92 % 0 mm
06:04 5.9 °C 4.9 °C 1009 hPa North 14.8 km/h 9.2 km/h 93 % 0 mm
06:09 5.9 °C 4.7 °C 1009 hPa North 11.1 km/h 8.2 km/h 92 % 0 mm
06:14 5.9 °C 4.9 °C 1009 hPa North 9.3 km/h 7.9 km/h 93 % 0 mm
06:19 5.9 °C 4.9 °C 1009 hPa North 14.8 km/h 11.9 km/h 93 % 0 mm
06:24 5.9 °C 4.9 °C 1009 hPa North 13 km/h 5.6 km/h 93 % 0 mm
06:29 5.9 °C 4.9 °C 1009 hPa North 18.5 km/h 8.2 km/h 93 % 0 mm
06:34 5.9 °C 4.9 °C 1009 hPa NNE 18.5 km/h 9.7 km/h 93 % 0 mm
06:39 5.9 °C 4.9 °C 1009 hPa North 13 km/h 10.3 km/h 93 % 0 mm
06:44 5.9 °C 4.9 °C 1009 hPa NNE 18.5 km/h 12.7 km/h 93 % 0 mm
06:49 5.9 °C 4.9 °C 1009.4 hPa North 18.5 km/h 11.6 km/h 93 % 0 mm
06:54 5.9 °C 4.8 °C 1009 hPa NNE 18.5 km/h 12.2 km/h 93 % 0 mm
06:59 5.9 °C 4.8 °C 1009.4 hPa North 16.7 km/h 8.9 km/h 93 % 0 mm
07:04 5.8 °C 4.8 °C 1009.4 hPa North 24.1 km/h 15 km/h 93 % 0 mm
07:09 5.8 °C 4.7 °C 1009.4 hPa North 16.7 km/h 13 km/h 93 % 0 mm
07:14 5.7 °C 4.7 °C 1009.4 hPa North 24.1 km/h 12.6 km/h 93 % 0 mm
07:19 5.7 °C 4.7 °C 1009.7 hPa NNW 27.8 km/h 9.8 km/h 93 % 0 mm
07:24 5.7 °C 4.7 °C 1009.7 hPa North 24.1 km/h 11.9 km/h 93 % 0 mm
07:29 5.7 °C 4.7 °C 1009.4 hPa North 18.5 km/h 14.8 km/h 93 % 0 mm
07:34 5.8 °C 4.7 °C 1009.7 hPa NNW 22.2 km/h 10.3 km/h 93 % 0 mm
07:39 5.8 °C 4.7 °C 1009.7 hPa North 22.2 km/h 8.5 km/h 93 % 0 mm
07:44 5.8 °C 4.7 °C 1009.7 hPa North 16.7 km/h 10.8 km/h 93 % 0 mm
07:49 5.8 °C 4.7 °C 1009.7 hPa North 22.2 km/h 18.8 km/h 93 % 0 mm
07:54 5.8 °C 4.7 °C 1009.7 hPa North 27.8 km/h 15.4 km/h 93 % 0 mm
07:59 5.8 °C 4.7 °C 1009.7 hPa North 31.5 km/h 17.5 km/h 93 % 0 mm
08:04 5.8 °C 4.7 °C 1009.7 hPa North 29.6 km/h 17.4 km/h 93 % 0 mm
08:09 5.8 °C 4.8 °C 1009.7 hPa NNE 25.9 km/h 15.4 km/h 93 % 0 mm
08:14 5.9 °C 4.8 °C 1009.7 hPa North 22.2 km/h 16.1 km/h 93 % 0 mm
08:19 5.9 °C 4.9 °C 1009.7 hPa North 18.5 km/h 11.4 km/h 93 % 0 mm
08:24 6 °C 4.9 °C 1010 hPa North 25.9 km/h 11.7 km/h 93 % 0 mm
08:29 6.1 °C 5.1 °C 1009.7 hPa NNW 25.9 km/h 10.3 km/h 93 % 0 mm
08:34 6.2 °C 5.2 °C 1009.7 hPa NNW 18.5 km/h 10.5 km/h 93 % 0 mm
08:39 6.3 °C 5.2 °C 1010 hPa North 11.1 km/h 9.8 km/h 93 % 0 mm
08:42 6.4 °C 5.3 °C 1009.7 hPa North 18.5 km/h 15.9 km/h 93 % 0 mm
08:49 6.4 °C 5.2 °C 1009.7 hPa NNW 20.9 km/h 14.6 km/h 92 % 0 mm
08:54 6.5 °C 5.3 °C 1009.7 hPa NNW 16.7 km/h 6.9 km/h 92 % 0 mm
08:59 6.6 °C 5.4 °C 1009.7 hPa North 11.3 km/h 8 km/h 92 % 0 mm
09:04 6.7 °C 5.4 °C 1009.7 hPa North 14.8 km/h 7.1 km/h 92 % 0 mm
09:09 6.8 °C 5.6 °C 1009.7 hPa North 14.5 km/h 8.2 km/h 92 % 0 mm
09:14 6.8 °C 5.6 °C 1009.7 hPa North 20.4 km/h 13 km/h 92 % 0 mm
09:19 6.9 °C 5.7 °C 1009.7 hPa North 13 km/h 6.3 km/h 92 % 0 mm
09:24 7.1 °C 5.7 °C 1009.7 hPa North 16.7 km/h 9.3 km/h 91 % 0 mm
09:29 7.2 °C 5.8 °C 1009.7 hPa NNE 22.5 km/h 17.5 km/h 91 % 0 mm
09:34 7.3 °C 5.9 °C 1009.7 hPa North 24.1 km/h 10.6 km/h 91 % 0 mm
09:39 7.4 °C 6.1 °C 1009.7 hPa North 18.5 km/h 12.6 km/h 91 % 0 mm
09:44 7.5 °C 5.9 °C 1010 hPa North 16.7 km/h 13.7 km/h 90 % 0 mm
09:49 7.5 °C 5.9 °C 1010 hPa North 16.1 km/h 13.8 km/h 90 % 0 mm
09:54 7.6 °C 6.1 °C 1010 hPa North 16.7 km/h 10.1 km/h 90 % 0 mm
09:59 7.6 °C 5.8 °C 1010 hPa North 25.9 km/h 21.4 km/h 89 % 0 mm
10:04 7.7 °C 5.9 °C 1010 hPa North 17.7 km/h 15.6 km/h 89 % 0 mm
10:09 7.7 °C 5.9 °C 1010 hPa NNW 24.1 km/h 13 km/h 89 % 0 mm
10:14 7.7 °C 6 °C 1009.7 hPa North 31.5 km/h 13.4 km/h 89 % 0 mm
10:19 7.8 °C 5.9 °C 1009.7 hPa North 27.8 km/h 15.1 km/h 88 % 0 mm
10:24 7.8 °C 5.9 °C 1009.7 hPa North 31.5 km/h 19.5 km/h 88 % 0 mm
10:29 7.9 °C 6 °C 1010 hPa North 31.5 km/h 18.5 km/h 88 % 0 mm
10:34 7.9 °C 5.9 °C 1009.7 hPa NNW 29.6 km/h 17.4 km/h 87 % 0 mm
10:39 8.1 °C 6 °C 1010 hPa North 33.3 km/h 22.2 km/h 87 % 0 mm
10:44 8.1 °C 6 °C 1010 hPa North 29.6 km/h 17.1 km/h 87 % 0 mm
10:49 8.2 °C 6.2 °C 1010 hPa North 27.8 km/h 19 km/h 87 % 0 mm
10:54 8.3 °C 6.3 °C 1010 hPa North 27.4 km/h 16.1 km/h 87 % 0 mm
10:59 8.4 °C 6.2 °C 1010 hPa North 16.7 km/h 13.7 km/h 86 % 0 mm
11:04 8.6 °C 6.4 °C 1010 hPa North 22.2 km/h 9.8 km/h 86 % 0 mm
11:09 8.7 °C 6.3 °C 1010 hPa North 31.5 km/h 16.6 km/h 85 % 0 mm
11:14 8.7 °C 6.3 °C 1010 hPa NNW 18.5 km/h 12.7 km/h 85 % 0 mm
11:19 8.7 °C 6.3 °C 1010 hPa North 29.6 km/h 12.4 km/h 85 % 0 mm
11:24 8.7 °C 6.5 °C 1010 hPa North 22.5 km/h 14.8 km/h 86 % 0 mm
11:29 8.7 °C 6.3 °C 1010 hPa North 27.8 km/h 17.5 km/h 85 % 0 mm
11:34 8.8 °C 6.6 °C 1010 hPa North 29.6 km/h 19.6 km/h 86 % 0 mm
11:39 8.9 °C 6.7 °C 1010 hPa North 14.8 km/h 8.4 km/h 86 % 0 mm
11:44 9.1 °C 6.7 °C 1009.7 hPa North 18.5 km/h 11.9 km/h 85 % 0 mm
11:49 9.4 °C 7 °C 1009.7 hPa North 24.1 km/h 17.1 km/h 85 % 0 mm
11:54 9.6 °C 7 °C 1009.7 hPa NNW 29.6 km/h 15.6 km/h 84 % 0 mm
11:59 9.7 °C 7.1 °C 1009.4 hPa North 20.4 km/h 9.8 km/h 84 % 0 mm
12:04 9.8 °C 7.1 °C 1009.7 hPa North 24.1 km/h 16.3 km/h 83 % 0 mm
12:09 9.9 °C 7.2 °C 1009.4 hPa North 24.1 km/h 15.4 km/h 83 % 0 mm
12:14 10.1 °C 7.3 °C 1009.4 hPa North 25.9 km/h 15.3 km/h 83 % 0 mm
12:19 10.2 °C 7.4 °C 1009.4 hPa North 24.1 km/h 16.6 km/h 83 % 0 mm
12:24 10.4 °C 7.5 °C 1009.4 hPa NNE 24.1 km/h 14.5 km/h 82 % 0 mm
12:29 10.7 °C 7.6 °C 1009.4 hPa North 18.5 km/h 15.4 km/h 81 % 0 mm
12:34 10.9 °C 7.8 °C 1009 hPa North 24.1 km/h 10.8 km/h 81 % 0 mm
12:39 11.1 °C 7.6 °C 1009 hPa North 24.1 km/h 18.5 km/h 79 % 0 mm
12:44 10.9 °C 7.2 °C 1009 hPa North 29.6 km/h 14.8 km/h 78 % 0 mm
12:49 10.7 °C 7.2 °C 1009 hPa NNW 31.5 km/h 20.9 km/h 79 % 0 mm
12:54 10.7 °C 7 °C 1009 hPa North 31.5 km/h 19.8 km/h 78 % 0 mm
12:59 10.7 °C 7.2 °C 1009 hPa NNE 22.2 km/h 13.4 km/h 79 % 0 mm
13:04 10.6 °C 7.3 °C 1009 hPa North 29.6 km/h 14.8 km/h 80 % 0 mm
13:09 10.3 °C 7.3 °C 1009 hPa North 27.8 km/h 11.9 km/h 82 % 0 mm
13:14 10.2 °C 7.6 °C 1009 hPa North 20.4 km/h 17.1 km/h 84 % 0 mm
13:19 10.1 °C 7.7 °C 1009 hPa North 29.6 km/h 15 km/h 85 % 0 mm
13:24 10.2 °C 8 °C 1008.7 hPa North 20.4 km/h 11.3 km/h 86 % 0 mm
13:29 10.4 °C 8.2 °C 1008.7 hPa North 27.4 km/h 16.3 km/h 86 % 0 mm
13:34 10.4 °C 7.8 °C 1008.7 hPa North 25.9 km/h 14.8 km/h 84 % 0.2 mm
13:39 10.7 °C 8.1 °C 1008.7 hPa North 16.7 km/h 15.1 km/h 84 % 0.2 mm
13:44 11.2 °C 8.4 °C 1008.7 hPa North 13 km/h 12.6 km/h 83 % 0.2 mm
13:49 11.4 °C 8.1 °C 1008.7 hPa NNW 22.2 km/h 13 km/h 80 % 0.2 mm
13:54 11.3 °C 7.9 °C 1008.7 hPa North 18.5 km/h 8.4 km/h 80 % 0.2 mm
13:59 11.2 °C 7.9 °C 1008.4 hPa NNW 16.1 km/h 13.8 km/h 80 % 0.2 mm
14:04 11.1 °C 7.7 °C 1008.4 hPa North 18.5 km/h 14.8 km/h 80 % 0.2 mm
14:09 11.1 °C 7.7 °C 1008.4 hPa North 18.5 km/h 14.6 km/h 80 % 0.2 mm
14:14 11.2 °C 7.7 °C 1008 hPa North 22.2 km/h 15.8 km/h 79 % 0.2 mm
14:19 11.5 °C 8 °C 1008 hPa North 24.1 km/h 12.9 km/h 79 % 0.2 mm
14:24 11.8 °C 7.9 °C 1008 hPa North 25.9 km/h 12.6 km/h 77 % 0.2 mm
14:29 12 °C 7.9 °C 1008 hPa North 27.8 km/h 16.4 km/h 76 % 0.2 mm
14:34 12.2 °C 7.7 °C 1008 hPa North 29.6 km/h 15.6 km/h 74 % 0 mm
14:39 12.2 °C 7.9 °C 1008 hPa NNW 18.5 km/h 13.2 km/h 75 % 0 mm
14:44 12.2 °C 7.7 °C 1008 hPa North 18.5 km/h 13.8 km/h 74 % 0 mm
14:49 12 °C 7.5 °C 1008 hPa NNW 20.4 km/h 12.9 km/h 74 % 0 mm
14:54 11.8 °C 7.3 °C 1008.4 hPa NW 31.5 km/h 19.8 km/h 74 % 0 mm
14:59 11.7 °C 7.4 °C 1008 hPa North 16.7 km/h 14.5 km/h 75 % 0 mm
15:04 11.8 °C 7.5 °C 1008 hPa NNW 24.1 km/h 16.7 km/h 75 % 0 mm
15:09 11.8 °C 7.5 °C 1008 hPa North 24.1 km/h 14.8 km/h 75 % 0 mm
15:14 11.8 °C 7.5 °C 1008 hPa North 18.5 km/h 12.1 km/h 75 % 0 mm
15:19 11.7 °C 7.4 °C 1008 hPa NNE 19.3 km/h 10.3 km/h 75 % 0 mm
15:24 11.9 °C 7.8 °C 1007.7 hPa NNE 22.5 km/h 15.3 km/h 76 % 0 mm
15:29 12 °C 7.7 °C 1007.7 hPa NNW 22.5 km/h 12.2 km/h 75 % 0 mm
15:34 12.5 °C 7.8 °C 1007.7 hPa North 27.8 km/h 15 km/h 73 % 0 mm
15:39 12.7 °C 8 °C 1007.7 hPa North 22.2 km/h 17.2 km/h 73 % 0 mm
15:44 12.7 °C 7.8 °C 1007.7 hPa North 22.2 km/h 14.3 km/h 72 % 0 mm
15:49 12.8 °C 7.9 °C 1007.3 hPa North 16.7 km/h 11.3 km/h 72 % 0 mm
15:54 12.9 °C 7.9 °C 1007.3 hPa North 17.7 km/h 13.8 km/h 72 % 0 mm
15:59 13 °C 7.9 °C 1007.3 hPa NNW 29.6 km/h 12.9 km/h 71 % 0 mm
16:04 13.1 °C 7.9 °C 1007.3 hPa North 22.2 km/h 10.5 km/h 71 % 0 mm
16:09 13 °C 7.9 °C 1007.3 hPa North 29.6 km/h 18 km/h 71 % 0 mm
16:14 12.8 °C 7.7 °C 1007.3 hPa North 31.5 km/h 10.3 km/h 71 % 0 mm
16:19 12.6 °C 7.4 °C 1007.3 hPa NW 20.9 km/h 18.3 km/h 71 % 0 mm
16:24 12.5 °C 7.6 °C 1007.3 hPa North 25.7 km/h 19.6 km/h 72 % 0 mm
16:29 12.5 °C 7.6 °C 1007.3 hPa North 22.5 km/h 16.7 km/h 72 % 0 mm
16:34 12.5 °C 7.4 °C 1007.3 hPa North 16.7 km/h 18.3 km/h 71 % 0 mm
16:39 12.5 °C 7.6 °C 1007.7 hPa North 25.7 km/h 14 km/h 72 % 0 mm
16:44 12.5 °C 7.6 °C 1007.3 hPa North 22.2 km/h 17.1 km/h 72 % 0 mm
16:49 12.5 °C 7.6 °C 1007.7 hPa North 18.5 km/h 14.8 km/h 72 % 0 mm
16:54 12.4 °C 7.6 °C 1007.7 hPa North 16.7 km/h 10.1 km/h 72 % 0 mm
16:59 12.4 °C 7.7 °C 1007.3 hPa NNE 19.3 km/h 10.9 km/h 73 % 0 mm
17:04 12.4 °C 7.7 °C 1007.7 hPa North 11.1 km/h 8.2 km/h 73 % 0 mm
17:09 12.4 °C 7.5 °C 1007.7 hPa North 20.9 km/h 13.7 km/h 72 % 0 mm
17:14 12.4 °C 7.6 °C 1007.7 hPa NNE 18.5 km/h 13.4 km/h 72 % 0 mm
17:19 12.5 °C 7.6 °C 1007.7 hPa North 18.5 km/h 11.3 km/h 72 % 0 mm
17:24 12.5 °C 7.6 °C 1007.7 hPa North 14.8 km/h 9.2 km/h 72 % 0 mm
17:29 12.5 °C 7.6 °C 1007.7 hPa North 18.5 km/h 12.1 km/h 72 % 0 mm
17:34 12.4 °C 7.6 °C 1007.7 hPa North 13 km/h 13.7 km/h 72 % 0 mm
17:39 12.4 °C 7.7 °C 1007.7 hPa North 16.7 km/h 8.7 km/h 73 % 0 mm
17:44 12.3 °C 7.6 °C 1007.7 hPa North 14.5 km/h 10.9 km/h 73 % 0 mm
17:49 12.2 °C 7.5 °C 1007.7 hPa North 18.5 km/h 9.7 km/h 73 % 0 mm
17:54 12.2 °C 7.5 °C 1008 hPa North 18.5 km/h 14.3 km/h 73 % 0 mm
17:59 12.2 °C 7.4 °C 1007.7 hPa North 18.5 km/h 11.3 km/h 73 % 0 mm
18:04 12.2 °C 7.7 °C 1008 hPa North 18.5 km/h 10 km/h 74 % 0 mm
18:09 12.2 °C 7.7 °C 1008 hPa North 11.3 km/h 7.6 km/h 74 % 0 mm
18:14 12.2 °C 7.7 °C 1008 hPa NNW 16.7 km/h 11.4 km/h 74 % 0 mm
18:19 12.1 °C 7.6 °C 1008 hPa North 18.5 km/h 8.4 km/h 74 % 0 mm
18:24 12 °C 7.5 °C 1008 hPa North 13 km/h 7.4 km/h 74 % 0 mm
18:29 11.9 °C 7.4 °C 1008 hPa North 16.7 km/h 8.7 km/h 74 % 0 mm
18:34 11.9 °C 7.6 °C 1008 hPa North 14.8 km/h 6.6 km/h 75 % 0 mm
18:39 11.8 °C 7.6 °C 1008 hPa North 12.9 km/h 10.3 km/h 75 % 0 mm
18:44 11.8 °C 7.5 °C 1008 hPa North 13 km/h 5.5 km/h 75 % 0 mm
18:49 11.8 °C 7.3 °C 1008 hPa North 13 km/h 7.9 km/h 74 % 0 mm
18:54 11.8 °C 7.3 °C 1008 hPa North 16.7 km/h 13.4 km/h 74 % 0 mm
18:59 11.9 °C 7.4 °C 1008 hPa North 13 km/h 7.6 km/h 74 % 0 mm
19:04 12 °C 7.3 °C 1008 hPa North 16.7 km/h 10.6 km/h 73 % 0 mm
19:09 12.1 °C 7.2 °C 1008 hPa NNE 22.2 km/h 6.8 km/h 72 % 0 mm
19:14 12.1 °C 7.2 °C 1008 hPa North 9.3 km/h 7.1 km/h 72 % 0 mm
19:19 12.2 °C 7.3 °C 1008 hPa North 16.7 km/h 7.9 km/h 72 % 0 mm
19:24 12.2 °C 7.1 °C 1008 hPa North 11.3 km/h 9 km/h 71 % 0 mm
19:29 12.3 °C 7.2 °C 1008 hPa North 9.7 km/h 7.1 km/h 71 % 0 mm
19:34 12.3 °C 7.2 °C 1008 hPa North 7.4 km/h 5.5 km/h 71 % 0 mm
19:39 12.2 °C 7.1 °C 1008 hPa North 18.5 km/h 11.7 km/h 71 % 0 mm
19:59 12.5 °C 6.8 °C 1008.4 hPa North 20.9 km/h 14.6 km/h 68 % 0 mm
20:04 12.6 °C 6.6 °C 1008.4 hPa NNW 27.8 km/h 13.2 km/h 67 % 0 mm
20:09 12.6 °C 6.6 °C 1008.4 hPa North 20.4 km/h 11.1 km/h 67 % 0 mm
20:14 12.5 °C 6.6 °C 1008.4 hPa NNW 24.1 km/h 15.1 km/h 67 % 0 mm
20:19 12.4 °C 6.7 °C 1008.4 hPa NNW 20.4 km/h 9.3 km/h 68 % 0 mm
20:24 12.3 °C 6.6 °C 1008.4 hPa North 18.5 km/h 11.9 km/h 68 % 0 mm
20:29 12.3 °C 6.6 °C 1008.4 hPa North 20.4 km/h 15.8 km/h 68 % 0 mm
20:34 12.3 °C 6.6 °C 1008.7 hPa North 20.9 km/h 10.3 km/h 68 % 0 mm
20:39 12.3 °C 6.3 °C 1008.7 hPa NNE 17.7 km/h 13.5 km/h 67 % 0 mm
20:44 12.3 °C 6.3 °C 1008.4 hPa North 25.9 km/h 14.2 km/h 67 % 0 mm
20:49 12.3 °C 6.3 °C 1008.4 hPa North 17.7 km/h 11.9 km/h 67 % 0 mm
20:54 12.3 °C 6.3 °C 1008.4 hPa North 18.5 km/h 15 km/h 67 % 0 mm
20:59 12.2 °C 6.3 °C 1008.4 hPa North 18.5 km/h 13.8 km/h 67 % 0 mm
21:04 12.2 °C 6.2 °C 1008.4 hPa NNE 11.3 km/h 9.2 km/h 67 % 0 mm
21:09 12.2 °C 6 °C 1008.4 hPa North 18.5 km/h 13.5 km/h 66 % 0 mm
21:14 12.1 °C 5.9 °C 1008.4 hPa North 13 km/h 8.4 km/h 66 % 0 mm
21:19 12.1 °C 5.9 °C 1008.4 hPa North 22.2 km/h 11.7 km/h 66 % 0 mm
21:24 12.1 °C 5.9 °C 1008.4 hPa North 14.8 km/h 8.4 km/h 66 % 0 mm
21:29 12.1 °C 5.9 °C 1008.4 hPa North 13 km/h 11.1 km/h 66 % 0 mm
21:34 12 °C 5.6 °C 1008.4 hPa North 13 km/h 9.3 km/h 65 % 0 mm
21:39 12.1 °C 5.7 °C 1008.4 hPa North 16.7 km/h 13.2 km/h 65 % 0 mm
21:44 12.2 °C 5.6 °C 1008 hPa NNW 18.5 km/h 14.5 km/h 64 % 0 mm
21:49 12.2 °C 5.6 °C 1008.4 hPa North 18.5 km/h 9 km/h 64 % 0 mm
21:54 12.2 °C 5.4 °C 1008.4 hPa North 20.9 km/h 14.2 km/h 63 % 0 mm
21:59 12.2 °C 5.4 °C 1008.4 hPa North 18.5 km/h 15.6 km/h 63 % 0 mm
22:04 12.3 °C 5.4 °C 1008 hPa North 25.9 km/h 9.2 km/h 63 % 0 mm
22:09 12.2 °C 5.4 °C 1008 hPa North 20.4 km/h 14.8 km/h 63 % 0 mm
22:14 12.2 °C 5.4 °C 1008 hPa NNW 22.2 km/h 12.6 km/h 63 % 0 mm
22:19 12.2 °C 5.2 °C 1008 hPa North 18.5 km/h 17.5 km/h 62 % 0 mm
22:24 12.3 °C 5.2 °C 1008 hPa North 18.5 km/h 7.9 km/h 62 % 0 mm
22:29 12.3 °C 5.2 °C 1008 hPa NNW 18.5 km/h 11.6 km/h 62 % 0 mm
22:34 12.3 °C 5.2 °C 1008 hPa NNW 18.5 km/h 10.3 km/h 62 % 0 mm
22:39 12.2 °C 5.2 °C 1008 hPa North 18.5 km/h 13.2 km/h 62 % 0 mm
22:44 12.3 °C 5.2 °C 1008 hPa NNW 24.1 km/h 8.7 km/h 62 % 0 mm
22:49 12.3 °C 4.9 °C 1008 hPa North 13 km/h 11.7 km/h 61 % 0 mm
22:54 12.3 °C 4.9 °C 1008 hPa North 16.1 km/h 13 km/h 61 % 0 mm
22:59 12.3 °C 5 °C 1007.7 hPa North 20.9 km/h 7.7 km/h 61 % 0 mm
23:04 12.3 °C 4.9 °C 1007.7 hPa North 17.7 km/h 11.6 km/h 61 % 0 mm
23:09 12.3 °C 4.9 °C 1007.7 hPa North 18.5 km/h 13.7 km/h 61 % 0 mm
23:14 12.3 °C 4.9 °C 1007.7 hPa North 20.4 km/h 15 km/h 61 % 0 mm
23:19 12.3 °C 4.7 °C 1007.7 hPa North 25.9 km/h 10.6 km/h 60 % 0 mm
23:24 12.2 °C 4.7 °C 1007.7 hPa North 24.1 km/h 13 km/h 60 % 0 mm
23:29 12.2 °C 4.9 °C 1007.7 hPa North 22.2 km/h 13.5 km/h 61 % 0 mm
23:34 12.2 °C 4.9 °C 1007.7 hPa North 20.4 km/h 14.8 km/h 61 % 0 mm
23:39 12.1 °C 4.8 °C 1007.7 hPa North 18.5 km/h 14.2 km/h 61 % 0 mm
23:44 12.1 °C 4.8 °C 1007.7 hPa North 22.2 km/h 10.3 km/h 61 % 0 mm
23:49 12 °C 4.7 °C 1007.7 hPa NNW 22.2 km/h 13.8 km/h 61 % 0 mm
23:54 11.9 °C 4.7 °C 1007.7 hPa North 18.5 km/h 12.9 km/h 61 % 0 mm
23:59 11.9 °C 4.6 °C 1007.7 hPa North 29.6 km/h 11.9 km/h 61 % 0 mm
Ararat Weather
Compliments of Weather Underground - 2.25 mb
Click here to send mail.


ABOUT

Live weather data from Ararat, Victoria, Australia, 3377
Data uploaded from Cumulus every 5 minutes to Weather Underground.
This site then downloads the raw data for formatting and display.
Metric and imperial data can be displayed. Graphs and historical data available.
Includes Sun and Moon times and rain image live from BOM.

Check out Ararat Weather on Facebook, Twitter and Google +

Help support ongoing costs by checking out the ads





Follow @AraratWeather